Data for 05/05/2016

Time Sea-Level Adjusted Pressure Absolute Pressure Temperature Relative Humidity Dew Point   
(mb) (inHg) (mb) (inHg) (C) (F) (%) (C) (F)
00:05 1017 30.03 846 24.98 14.1 57.5 32 -2.2 28
00:10 1017 30.03 846 24.98 14.3 57.7 31 -2.6 27.3
00:15 1017 30.03 846 24.98 14.1 57.4 33 -2 28.4
00:20 1017 30.03 846 24.98 13.7 56.7 33 -2.1 28.2
00:25 1017 30.03 846 24.98 13.5 56.3 33 -2.2 28
00:30 1017 30.03 846 24.98 13.4 56.1 34 -2 28.3
00:35 1017 30.03 846 24.98 13.3 55.9 35 -1.9 28.7
00:40 1017 30.03 846 24.98 13.3 55.9 34 -2 28.4
00:45 1017 30.03 846 24.98 13.2 55.8 35 -2 28.5
00:50 1017 30.03 846 24.98 13.1 55.7 35 -1.9 28.5
00:55 1017 30.03 846 24.98 13.2 55.8 35 -2 28.5
01:00 1017 30.03 846 24.98 13.2 55.7 35 -1.8 28.8
01:05 1017 30.03 846 24.98 13.2 55.8 35 -1.9 28.5
01:10 1017 30.03 846 24.98 13.3 55.9 35 -1.9 28.6
01:15 1017 30.03 846 24.98 13.3 56 34 -2 28.4
01:20 1017 30.03 846 24.98 13.4 56.2 34 -2.2 28.1
01:25 1017 30.03 846 24.98 13.4 56.2 35 -1.8 28.8
01:30 1017 30.03 846 24.98 13.6 56.5 33 -2.4 27.7
01:35 1017 30.03 846 24.98 13.7 56.6 34 -1.9 28.6
01:40 1017 30.03 846 24.98 13.5 56.3 34 -2 28.3
01:45 1017 30.03 846 24.98 13.5 56.4 34 -1.9 28.5
01:50 1017 30.03 846 24.98 13.6 56.5 33 -2.1 28.2
01:55 1017 30.03 846 24.98 13.7 56.6 33 -2.1 28.2
02:00 1017 30.03 846 24.98 13.7 56.7 33 -2.1 28.2
02:05 1017 30.03 846 24.98 13.7 56.7 33 -2.3 27.8
02:10 1017 30.03 846 24.98 14 57.2 32 -2.4 27.7
02:15 1017 30.03 846 24.98 14.1 57.4 33 -1.9 28.6
02:20 1017 30.03 846 24.98 13.9 57 33 -1.9 28.6
02:25 1017 30.03 846 24.98 13.7 56.7 34 -2 28.5
02:30 1017 30.03 846 24.98 13.6 56.6 34 -2 28.5
02:35 1017 30.03 846 24.98 13.5 56.4 35 -1.6 29.1
02:40 1017 30.03 846 24.98 13.4 56.2 37 -0.9 30.4
02:45 1017 30.03 846 24.98 13.7 56.6 33 -2.2 28.1
02:50 1017 30.03 846 24.98 13.8 56.8 33 -2 28.4
02:55 1017 30.03 846 24.98 13.6 56.6 34 -2 28.4
03:00 1017 30.03 846 24.98 13.6 56.4 35 -1.6 29.1
03:05 1017 30.03 846 24.98 13.3 56 36 -1.5 29.3
03:10 1017 30.03 846 24.98 13.1 55.6 36 -1.4 29.6
03:15 1017 30.03 846 24.98 13 55.4 37 -1.2 29.8
03:20 1017 30.03 846 24.98 12.9 55.2 37 -1.3 29.7
03:25 1017 30.03 846 24.98 12.8 55.1 38 -1.1 30
03:30 1017 30.03 846 24.98 12.8 55.1 36 -1.8 28.7
03:35 1017 30.03 846 24.98 13.2 55.8 35 -1.9 28.5
03:40 1017 30.03 846 24.98 13.5 56.3 34 -2 28.4
03:45 1017 30.03 846 24.98 13.5 56.3 34 -2 28.5
03:50 1017 30.03 846 24.98 13.4 56.1 35 -1.8 28.8
03:55 1017 30.03 846 24.98 13.4 56.1 35 -1.9 28.7
04:00 1017 30.03 846 24.98 13.3 56 34 -2 28.4
04:05 1017 30.03 846 24.98 13.4 56.1 34 -2.1 28.1
04:10 1017 30.03 846 24.98 13.4 56.1 34 -2 28.4
04:15 1017 30.03 846 24.98 13.4 56.1 34 -2 28.5
04:20 1017 30.03 846 24.98 13.2 55.8 35 -1.7 28.9
04:25 1017 30.03 846 24.98 13 55.4 36 -1.7 29
04:30 1017 30.03 846 24.98 12.8 55 36 -1.7 28.9
04:35 1017 30.03 846 24.98 12.7 54.9 37 -1.7 29
04:40 1017 30.03 846 24.98 12.5 54.5 38 -1.4 29.5
04:45 1017 30.03 846 24.98 12.4 54.3 38 -1.5 29.4
04:50 1017 30.03 846 24.98 12.5 54.5 37 -1.6 29.1
04:55 1017 30.03 846 24.98 12.5 54.5 36 -2 28.4
05:00 1017 30.03 846 24.98 12.7 54.9 36 -2 28.4
05:05 1017 30.03 846 24.98 12.6 54.8 37 -1.8 28.8
05:10 1017 30.03 846 24.98 12.4 54.3 37 -1.7 29
05:15 1017 30.03 846 24.98 12.3 54.1 37 -1.8 28.8
05:20 1017 30.03 846 24.98 12.4 54.3 36 -2.1 28.3
05:25 1017 30.03 846 24.98 12.5 54.5 37 -1.7 28.9
05:30 1017 30.03 846 24.98 12.4 54.4 38 -1.5 29.4
05:35 1017 30.03 846 24.98 12.2 54 38 -1.5 29.3
05:40 1017 30.03 846 24.98 12.2 53.9 38 -1.8 28.7
05:45 1017 30.03 846 24.98 12.4 54.4 38 -1.6 29.1
05:50 1017 30.03 846 24.98 12.5 54.5 36 -2.1 28.1
05:55 1017 30.03 846 24.98 12.7 54.9 36 -1.8 28.8
06:00 1017 30.03 846 24.98 12.4 54.3 41 -0.5 31.2
06:05 1017 30.03 846 24.98 12 53.6 40 -1.1 30.1
06:10 1017 30.03 846 24.98 12 53.5 40 -1.3 29.7
06:15 1017 30.03 847 25.01 11.9 53.4 41 -0.9 30.3
06:20 1017 30.03 847 25.01 11.8 53.2 41 -0.9 30.5
06:25 1017 30.03 847 25.01 11.9 53.4 42 -0.6 31
06:30 1017 30.03 846 24.98 11.8 53.3 43 -0.2 31.7
06:35 1017 30.03 846 24.98 11.9 53.4 42 -0.5 31.2
06:40 1017 30.03 846 24.98 12.3 54.2 40 -0.7 30.7
06:45 1017 30.03 846 24.98 12.7 54.9 38 -1.1 30
06:50 1017 30.03 846 24.98 13.1 55.6 40 -0 32
06:55 1017 30.03 846 24.98 13.4 56.1 39 -0.3 31.4
07:00 1017 30.03 846 24.98 13.6 56.5 39 -0.1 31.8
07:05 1017 30.03 847 25.01 13.9 56.9 39 0.4 32.7
07:10 1017 30.03 847 25.01 14.1 57.3 40 0.6 33.1
07:15 1017 30.03 846 24.98 14.1 57.4 40 0.9 33.7
07:20 1017 30.03 846 24.98 14.2 57.5 41 1.1 34
07:25 1017 30.03 847 25.01 14.2 57.6 42 1.6 34.9
07:30 1017 30.03 846 24.98 14.4 57.8 42 1.5 34.8
07:35 1017 30.03 846 24.98 14.4 58 43 2.1 35.8
07:40 1017 30.03 846 24.98 14.6 58.3 41 1.6 34.9
07:45 1017 30.03 846 24.98 14.9 58.7 42 2.1 35.8
07:50 1017 30.03 846 24.98 15.3 59.6 37 0.8 33.4
07:55 1017 30.03 846 24.98 16.1 60.9 35 0.7 33.2
08:00 1017 30.03 847 25.01 16.5 61.7 35 1.2 34.1
08:05 1017 30.03 847 25.01 16.5 61.8 34 0.8 33.4
08:10 1017 30.03 847 25.01 16.7 62 34 1 33.7
08:15 1017 30.03 847 25.01 17.2 63 33 0.7 33.3
08:20 1017 30.03 847 25.01 17.6 63.6 33 1.2 34.2
08:25 1017 30.03 846 24.98 18.4 65.2 31 1 33.8
08:30 1017 30.03 847 25.01 18.8 65.8 29 0.4 32.8
08:35 1017 30.03 847 25.01 18.5 65.4 30 1 33.8
08:40 1017 30.03 847 25.01 18.9 66 28 0.3 32.6
08:45 1017 30.03 846 24.98 19.3 66.7 29 0.9 33.6
08:50 1017 30.03 846 24.98 19.4 66.9 29 1 33.7
08:55 1017 30.03 846 24.98 19.7 67.5 28 0.8 33.4
09:00 1017 30.03 846 24.98 20.8 69.4 25 0.4 32.7
09:05 1017 30.03 846 24.98 20.7 69.3 23 -0.9 30.4
09:10 1017 30.03 846 24.98 20.8 69.5 22 -1.7 28.9
09:15 1017 30.03 846 24.98 21.5 70.7 19 -3 26.6
09:20 1017 30.03 846 24.98 21.7 71.1 18 -3.5 25.8
09:25 1017 30.03 846 24.98 21.8 71.2 21 -1.5 29.2
09:30 1017 30.03 846 24.98 21.9 71.3 19 -2.8 27
09:35 1017 30.03 846 24.98 22.1 71.7 19 -2.3 27.8
09:40 1017 30.03 846 24.98 22.2 71.9 19 -2.5 27.4
09:45 1017 30.03 846 24.98 22.6 72.7 18 -3 26.6
09:50 1017 30.03 846 24.98 22.5 72.5 16 -4.1 24.5
09:55 1017 30.03 846 24.98 22.1 71.7 18 -3.3 26.1
10:00 1017 30.03 846 24.98 22.6 72.8 19 -1.8 28.8
10:05 1017 30.03 846 24.98 22.7 72.9 20 -1.3 29.7
10:10 1017 30.03 846 24.98 22.1 71.7 20 -1.7 28.9
10:15 1017 30.03 846 24.98 22.8 73 21 -0.7 30.8
10:20 1017 30.03 846 24.98 22.8 73 22 -0.1 31.9
10:25 1017 30.03 846 24.98 23.1 73.6 17 -2.8 27
10:30 1017 30.03 846 24.98 23.7 74.6 20 -0.7 30.7
10:35 1017 30.03 846 24.98 23.6 74.4 18 -2 28.5
10:40 1017 30.03 846 24.98 23.1 73.6 17 -3 26.6
10:45 1017 30.03 846 24.98 23.1 73.6 17 -3.4 25.9
10:50 1017 30.03 846 24.98 23.1 73.5 15 -4.4 24
10:55 1017 30.03 846 24.98 22.8 73.1 17 -3.7 25.4
11:00 1017 30.03 846 24.98 22.9 73.2 15 -4.9 23.2
11:05 1016 30 846 24.98 23.8 74.8 15 -4.5 23.8
11:10 1016 30 846 24.98 24.5 76.2 14 -4.1 24.7
11:15 1016 30 846 24.98 24.7 76.5 14 -4.4 24.1
11:20 1016 30 846 24.98 24.9 76.9 14 -3.8 25.2
11:25 1016 30 846 24.98 24.5 76.1 14 -4.2 24.4
11:30 1016 30 846 24.98 24.3 75.7 14 -4.9 23.2
11:35 1016 30 845 24.95 24.8 76.7 14 -4.1 24.6
11:40 1016 30 845 24.95 25.2 77.3 13 -4.5 23.9
11:45 1016 30 845 24.95 25.6 78.1 13 -4.4 24.1
11:50 1016 30 845 24.95 25.9 78.7 13 -4.3 24.3
11:55 1016 30 845 24.95 25.4 77.7 14 -4.2 24.4
12:00 1016 30 845 24.95 25.7 78.3 14 -3.6 25.5
12:05 1016 30 845 24.95 25.7 78.3 13 -4.1 24.7
12:10 1016 30 845 24.95 25.1 77.2 13 -4.6 23.7
12:15 1016 30 845 24.95 25.1 77.1 14 -3.9 25
12:20 1016 30 845 24.95 25.2 77.4 13 -4.4 24.1
12:25 1016 30 845 24.95 25.5 77.9 14 -3.8 25.1
12:30 1016 30 845 24.95 25.2 77.4 14 -4.1 24.7
12:35 1016 30 845 24.95 24.3 75.8 15 -3.9 24.9
12:40 1016 30 845 24.95 24 75.3 15 -4.1 24.7
12:45 1016 30 845 24.95 24.6 76.3 15 -3.7 25.3
12:50 1016 30 845 24.95 26 78.7 13 -3.9 24.9
12:55 1016 30 845 24.95 26 78.7 13 -3.9 24.9
13:00 1016 30 845 24.95 26.1 78.9 14 -3.3 26.1
13:05 1016 30 845 24.95 25.7 78.3 14 -3.4 25.9
13:10 1016 30 845 24.95 24.5 76.2 15 -4 24.8
13:15 1015 29.97 845 24.95 24.9 76.7 15 -3.2 26.2
13:20 1015 29.97 845 24.95 25.6 78 14 -3.2 26.3
13:25 1015 29.97 845 24.95 26.3 79.3 14 -3.5 25.7
13:30 1015 29.97 845 24.95 26.5 79.7 14 -3 26.6
13:35 1015 29.97 845 24.95 26.6 80 15 -2.2 28.1
13:40 1015 29.97 845 24.95 27.3 81.2 13 -3.2 26.2
13:45 1015 29.97 844 24.92 27 80.6 14 -2.4 27.7
13:50 1015 29.97 844 24.92 26.4 79.6 14 -2.7 27.1
13:55 1015 29.97 844 24.92 25.7 78.3 14 -3.5 25.8
14:00 1015 29.97 844 24.92 25.2 77.4 14 -4 24.8
14:05 1015 29.97 844 24.92 25.3 77.6 14 -3.8 25.2
14:10 1015 29.97 844 24.92 25.9 78.6 14 -3.2 26.2
14:15 1015 29.97 844 24.92 26.8 80.3 13 -3.3 26.1
14:20 1015 29.97 844 24.92 27.1 80.7 14 -2.7 27.2
14:25 1015 29.97 844 24.92 27.2 80.9 13 -3.3 26.1
14:30 1015 29.97 844 24.92 27.5 81.6 13 -3.5 25.7
14:35 1015 29.97 844 24.92 27 80.5 13 -3.8 25.2
14:40 1015 29.97 844 24.92 26.9 80.4 13 -3.2 26.2
14:45 1015 29.97 844 24.92 26.8 80.3 12 -4.2 24.5
14:50 1015 29.97 844 24.92 27.5 81.4 13 -3.6 25.6
14:55 1015 29.97 844 24.92 27.5 81.5 12 -4.1 24.7
15:00 1015 29.97 844 24.92 28 82.5 12 -3.6 25.5
15:05 1014 29.94 844 24.92 28.4 83 12 -3.8 25.2
15:10 1014 29.94 844 24.92 27.2 80.9 13 -3.6 25.5
15:15 1014 29.94 844 24.92 26.7 80 13 -3.5 25.7
15:20 1014 29.94 843 24.89 26.4 79.6 13 -4 24.8
15:25 1014 29.94 843 24.89 26.2 79.1 13 -4.2 24.4
15:30 1014 29.94 843 24.89 26.7 80.1 12 -4.2 24.4
15:35 1014 29.94 843 24.89 26.5 79.7 14 -3.3 26.1
15:40 1014 29.94 843 24.89 25.7 78.3 14 -3.3 26.1
15:45 1014 29.94 843 24.89 25.6 78 14 -3.6 25.6
15:50 1014 29.94 843 24.89 25.1 77.2 14 -3.9 25
15:55 1014 29.94 843 24.89 25.1 77.1 14 -4.2 24.4
16:00 1014 29.94 843 24.89 25.2 77.4 14 -3.6 25.6
16:05 1014 29.94 843 24.89 25.4 77.6 14 -3.6 25.4
16:10 1014 29.94 843 24.89 25.7 78.2 14 -3.9 25.1
16:15 1014 29.94 843 24.89 25.7 78.2 13 -4.1 24.7
16:20 1014 29.94 843 24.89 25.9 78.7 14 -3.5 25.6
16:25 1014 29.94 843 24.89 26.3 79.4 14 -3.4 25.8
16:30 1014 29.94 843 24.89 26.1 79 14 -3.6 25.5
16:35 1014 29.94 843 24.89 25.9 78.6 14 -3.3 26
16:40 1014 29.94 843 24.89 25.5 77.9 14 -3.5 25.7
16:45 1014 29.94 843 24.89 26 78.8 13 -3.8 25.2
16:50 1014 29.94 843 24.89 25.9 78.6 13 -4.2 24.4
16:55 1014 29.94 843 24.89 25.5 77.9 14 -4.1 24.6
17:00 1014 29.94 843 24.89 25.5 78 14 -4 24.8
17:05 1014 29.94 843 24.89 26 78.8 13 -4.4 24
17:10 1014 29.94 843 24.89 25.6 78 14 -4.1 24.6
17:15 1014 29.94 843 24.89 25.6 78 14 -4 24.8
17:20 1014 29.94 843 24.89 25.8 78.5 13 -4.3 24.3
17:25 1014 29.94 843 24.89 26.1 79 14 -3.6 25.4
17:30 1014 29.94 843 24.89 26.3 79.4 13 -3.8 25.2
17:35 1014 29.94 843 24.89 25.8 78.5 14 -3.7 25.3
17:40 1014 29.94 843 24.89 25.5 77.8 14 -4 24.7
17:45 1014 29.94 843 24.89 25.2 77.3 14 -3.8 25.2
17:50 1014 29.94 843 24.89 25.1 77.2 16 -2.7 27.2
17:55 1014 29.94 843 24.89 25.1 77.2 14 -4.4 24.1
18:00 1014 29.94 843 24.89 25.1 77.1 14 -3.6 25.4
18:05 1014 29.94 843 24.89 24.8 76.7 14 -4.5 23.9
18:10 1014 29.94 843 24.89 24.7 76.4 15 -3.3 26.1
18:15 1014 29.94 843 24.89 24.7 76.4 15 -3.2 26.3
18:20 1014 29.94 843 24.89 24.5 76.1 16 -3.1 26.4
18:25 1014 29.94 843 24.89 24.3 75.8 17 -2 28.4
18:30 1014 29.94 843 24.89 24.2 75.6 16 -3 26.6
18:35 1014 29.94 843 24.89 24.2 75.5 17 -2.5 27.5
18:40 1014 29.94 843 24.89 24 75.2 17 -2.4 27.8
18:45 1014 29.94 843 24.89 23.9 75 18 -1.6 29.1
18:50 1014 29.94 843 24.89 23.6 74.5 20 -0.6 30.9
18:55 1014 29.94 843 24.89 23.3 73.9 21 -0.2 31.6
19:00 1014 29.94 843 24.89 23 73.3 23 1 33.9
19:05 1014 29.94 843 24.89 22.7 72.8 23 0.4 32.7
19:10 1014 29.94 843 24.89 22.2 72 24 0.8 33.4
19:15 1014 29.94 843 24.89 22 71.5 25 1.2 34.2
19:20 1014 29.94 843 24.89 21.7 71.1 25 1.3 34.3
19:25 1014 29.94 843 24.89 21.5 70.6 26 1.4 34.6
19:30 1014 29.94 843 24.89 21.3 70.3 26 1.3 34.3
19:35 1014 29.94 844 24.92 21.1 70 27 1.3 34.4
19:40 1014 29.94 844 24.92 21 69.8 26 1.1 34.1
19:45 1014 29.94 844 24.92 21 69.7 26 0.9 33.6
19:50 1014 29.94 844 24.92 21 69.8 25 0.6 33.1
19:55 1014 29.94 844 24.92 21.1 70 25 0.3 32.6
20:00 1014 29.94 844 24.92 21.2 70.1 24 0 32.1
20:05 1015 29.97 844 24.92 21.3 70.3 23 -0.4 31.3
20:10 1015 29.97 844 24.92 21.4 70.5 23 -0.7 30.8
20:15 1015 29.97 844 24.92 21.4 70.5 23 -0.7 30.8
20:20 1015 29.97 844 24.92 21.4 70.4 23 -0.7 30.7
20:25 1015 29.97 844 24.92 21.3 70.4 23 -0.5 31.1
20:30 1015 29.97 844 24.92 21.2 70.2 23 -0.3 31.5
20:35 1015 29.97 844 24.92 21.1 69.9 23 -0.6 31
20:40 1015 29.97 844 24.92 20.9 69.7 23 -0.6 31
20:45 1015 29.97 844 24.92 20.7 69.3 25 0.4 32.7
20:50 1015 29.97 844 24.92 20 68 27 0.8 33.4
20:55 1015 29.97 844 24.92 19.3 66.7 28 0.6 33.1
21:00 1015 29.97 844 24.92 19 66.2 29 0.5 33
21:05 1015 29.97 844 24.92 19 66.2 29 0.5 33
21:10 1015 29.97 844 24.92 18.9 66 29 0.4 32.8
21:15 1015 29.97 844 24.92 19.1 66.4 28 0.3 32.5
21:20 1015 29.97 844 24.92 19.4 66.9 28 0.3 32.6
21:25 1015 29.97 844 24.92 19.3 66.8 28 0.5 32.9
21:30 1015 29.97 844 24.92 19.3 66.7 27 0.1 32.2
21:35 1015 29.97 844 24.92 19.6 67.4 26 -0 31.9
21:40 1015 29.97 844 24.92 19.8 67.6 29 1.2 34.2
21:45 1015 29.97 845 24.95 18.5 65.3 32 1.6 34.9
21:50 1015 29.97 845 24.95 17.5 63.5 32 0.6 33
21:55 1015 29.97 845 24.95 17.2 62.9 32 0.5 32.8
22:00 1015 29.97 845 24.95 17.1 62.8 31 0.2 32.4
22:05 1015 29.97 844 24.92 17.1 62.7 31 0.2 32.3
22:10 1015 29.97 844 24.92 17 62.6 32 0.4 32.7
22:15 1015 29.97 844 24.92 17 62.5 32 0.5 32.8
22:20 1015 29.97 844 24.92 16.9 62.4 32 0.4 32.8
22:25 1015 29.97 844 24.92 16.9 62.5 33 0.5 32.9
22:30 1015 29.97 844 24.92 16.8 62.3 32 0.3 32.5
22:35 1015 29.97 844 24.92 16.8 62.2 32 0 32
22:40 1015 29.97 845 24.95 16.9 62.3 32 0 32
22:45 1016 30 845 24.95 16.7 62.1 32 -0.1 31.8
22:50 1016 30 845 24.95 16.5 61.7 32 -0.1 31.8
22:55 1016 30 845 24.95 16.6 61.8 33 0.5 32.9
23:00 1016 30 845 24.95 16.8 62.2 35 1.5 34.6
23:05 1016 30 845 24.95 17 62.7 32 0.5 32.9
23:10 1016 30 845 24.95 17.6 63.7 32 0.7 33.3
23:15 1016 30 845 24.95 18.8 65.9 26 -0.7 30.7
23:20 1016 30 845 24.95 19.5 67.1 29 1 33.9
23:25 1016 30 845 24.95 18.8 65.8 30 0.9 33.6
23:30 1016 30 845 24.95 18.3 65 31 1.2 34.2
23:35 1016 30 845 24.95 17.9 64.3 32 1.3 34.3
23:40 1016 30 845 24.95 17.8 64 32 0.9 33.6
23:45 1016 30 845 24.95 17.1 62.8 33 0.7 33.3
23:50 1016 30 845 24.95 16.1 61.1 34 0.4 32.7
23:55 1016 30 845 24.95 16.1 61 36 1 33.9
24:00 1016 30 845 24.95 15.8 60.4 41 2.6 36.8